Time;durP1;ratioP1;P1;durP2;ratioP2;P2;SDS_P1;SDS_P2;PMS_P1;PMS_P2;Temp;Humidity;BMP_temperature;BMP_pressure;BME280_temperature;BME280_humidity;BME280_pressure;Samples;Min_cycle;Max_cycle;Signal;HPM_P1;HPM_P2
2021/03/12 00:02:25;;;;;;;46.40;5.28;;;9.50;78.50;;;;;;5014152;28;20022;-74
2021/03/12 00:04:51;;;;;;;38.97;5.63;;;9.50;78.70;;;;;;5014022;28;20025;-74
2021/03/12 00:07:17;;;;;;;40.35;5.70;;;9.50;78.70;;;;;;5013347;28;20028;-75
2021/03/12 00:09:43;;;;;;;45.50;5.97;;;9.60;78.70;;;;;;5014310;28;20029;-75
2021/03/12 00:12:09;;;;;;;44.45;6.13;;;9.50;78.70;;;;;;5012408;28;20128;-74
2021/03/12 00:14:35;;;;;;;45.55;5.97;;;9.50;78.80;;;;;;5014372;28;20515;-75
2021/03/12 00:17:01;;;;;;;29.85;5.13;;;9.50;79.40;;;;;;5012475;28;20029;-75
2021/03/12 00:19:27;;;;;;;37.30;6.47;;;9.40;79.90;;;;;;5014000;28;20037;-74
2021/03/12 00:21:53;;;;;;;37.95;6.03;;;9.40;80.00;;;;;;5013801;28;20049;-75
2021/03/12 00:24:19;;;;;;;36.60;5.07;;;9.40;80.50;;;;;;5013231;28;20026;-74
2021/03/12 00:26:44;;;;;;;35.88;4.78;;;9.40;81.00;;;;;;5013492;28;20025;-73
2021/03/12 00:29:10;;;;;;;31.25;4.50;;;9.50;81.80;;;;;;5013993;28;20030;-74
2021/03/12 00:31:36;;;;;;;36.75;4.75;;;9.60;81.90;;;;;;5013881;28;20021;-74
2021/03/12 00:34:01;;;;;;;33.75;4.47;;;9.50;82.40;;;;;;5005305;28;20105;-75
2021/03/12 00:36:27;;;;;;;35.28;4.25;;;9.30;82.80;;;;;;5007238;28;20034;-75
2021/03/12 00:38:53;;;;;;;33.58;4.32;;;9.30;82.90;;;;;;5013571;28;20511;-75
2021/03/12 00:41:18;;;;;;;25.02;3.33;;;9.30;82.40;;;;;;5013340;28;20037;-74
2021/03/12 00:43:45;;;;;;;26.92;3.72;;;9.30;81.20;;;;;;5012246;28;20065;-75
2021/03/12 00:46:11;;;;;;;34.67;4.78;;;9.40;80.80;;;;;;5011685;28;20028;-75
2021/03/12 00:48:38;;;;;;;35.33;4.07;;;9.40;80.10;;;;;;5013215;28;20052;-75
2021/03/12 00:51:05;;;;;;;33.28;4.57;;;9.40;79.90;;;;;;5013270;28;20095;-75
2021/03/12 00:53:31;;;;;;;35.85;3.97;;;9.40;79.30;;;;;;5013197;28;20472;-74
2021/03/12 00:55:56;;;;;;;36.85;4.68;;;9.30;79.30;;;;;;5012982;28;20052;-75
2021/03/12 00:58:24;;;;;;;29.52;4.22;;;9.30;79.60;;;;;;5013310;28;20543;-74
2021/03/12 01:00:49;;;;;;;39.22;4.65;;;9.20;79.80;;;;;;5013106;28;20026;-74
2021/03/12 01:03:15;;;;;;;32.90;4.70;;;9.20;80.50;;;;;;5013176;28;20045;-74
2021/03/12 01:05:41;;;;;;;38.20;4.38;;;9.20;81.10;;;;;;5012977;28;20026;-74
2021/03/12 01:08:09;;;;;;;36.72;4.50;;;9.20;82.00;;;;;;5012792;28;20037;-74
2021/03/12 01:10:35;;;;;;;34.47;4.47;;;9.20;82.40;;;;;;5012700;28;20014;-74
2021/03/12 01:13:02;;;;;;;58.42;5.43;;;9.20;82.10;;;;;;5011764;28;20477;-74
2021/03/12 01:15:28;;;;;;;46.40;5.20;;;9.20;82.30;;;;;;5013067;28;20064;-74
2021/03/12 01:17:55;;;;;;;45.72;4.88;;;9.20;82.20;;;;;;5012817;28;20517;-74
2021/03/12 01:20:27;;;;;;;41.45;4.47;;;9.20;82.30;;;;;;5012678;28;20385;-74
2021/03/12 01:22:55;;;;;;;40.90;5.82;;;9.20;82.30;;;;;;5012551;28;20099;-74
2021/03/12 01:25:24;;;;;;;39.22;5.05;;;9.20;81.60;;;;;;5012399;28;20030;-75
2021/03/12 01:27:50;;;;;;;38.35;5.68;;;9.20;81.50;;;;;;5012802;28;20484;-75
2021/03/12 01:30:23;;;;;;;35.67;5.10;;;9.20;81.50;;;;;;5011647;28;20111;-75
2021/03/12 01:32:50;;;;;;;48.85;5.72;;;9.10;81.90;;;;;;5013047;28;20057;-74
2021/03/12 01:35:16;;;;;;;38.35;5.72;;;9.10;82.10;;;;;;5012288;28;20022;-74
2021/03/12 01:37:42;;;;;;;41.10;5.18;;;9.10;82.20;;;;;;5009842;28;20025;-74
2021/03/12 01:40:11;;;;;;;35.03;5.00;;;9.10;82.50;;;;;;5012631;28;20032;-75
2021/03/12 01:42:37;;;;;;;48.38;6.07;;;9.20;82.30;;;;;;5011187;28;20022;-75
2021/03/12 01:45:10;;;;;;;48.10;4.95;;;9.20;81.90;;;;;;5012817;28;20386;-75
2021/03/12 01:47:35;;;;;;;44.13;5.43;;;9.20;81.90;;;;;;5011456;28;20495;-74
2021/03/12 01:50:01;;;;;;;43.22;6.10;;;9.30;82.00;;;;;;5012306;28;20076;-74
2021/03/12 01:52:27;;;;;;;40.95;5.47;;;9.20;81.70;;;;;;5012423;28;20053;-74
2021/03/12 01:54:53;;;;;;;42.67;4.28;;;9.20;81.70;;;;;;5012587;28;20485;-75
2021/03/12 01:57:18;;;;;;;38.33;5.07;;;9.30;81.80;;;;;;5012152;28;20048;-75
2021/03/12 01:59:44;;;;;;;46.30;5.85;;;9.30;81.90;;;;;;5014109;28;20032;-74
2021/03/12 02:02:10;;;;;;;49.65;5.75;;;9.30;82.50;;;;;;5016605;28;20033;-74
2021/03/12 02:04:36;;;;;;;39.20;5.38;;;9.30;82.00;;;;;;5016027;28;20104;-74
2021/03/12 02:07:01;;;;;;;35.33;4.40;;;9.50;81.50;;;;;;5015608;28;20061;-75
2021/03/12 02:09:27;;;;;;;34.15;4.80;;;9.50;80.90;;;;;;5016338;28;20057;-74
2021/03/12 02:12:24;;;;;;;36.17;3.78;;;9.60;79.90;;;;;;5014362;28;20455;-74
2021/03/12 02:14:53;;;;;;;33.30;4.00;;;9.60;80.10;;;;;;5016386;28;20053;-75
2021/03/12 02:17:25;;;;;;;24.60;2.95;;;9.50;80.60;;;;;;5015895;28;20493;-75
2021/03/12 02:20:13;;;;;;;23.63;2.80;;;9.50;79.50;;;;;;5014713;28;20635;-75
2021/03/12 02:22:44;;;;;;;16.95;2.30;;;9.70;76.70;;;;;;5015685;28;20018;-75
2021/03/12 02:25:15;;;;;;;22.77;3.38;;;9.80;73.40;;;;;;5015591;28;20061;-74
2021/03/12 02:27:43;;;;;;;12.98;2.10;;;9.80;73.80;;;;;;5015965;28;20113;-74
2021/03/12 02:30:10;;;;;;;22.13;3.95;;;9.70;72.70;;;;;;5016146;28;20474;-75
2021/03/12 02:32:40;;;;;;;13.82;2.50;;;9.80;72.60;;;;;;5015912;28;20032;-74
2021/03/12 02:35:10;;;;;;;18.02;2.90;;;9.70;73.10;;;;;;5012751;28;20424;-75
2021/03/12 02:37:37;;;;;;;18.13;2.30;;;9.70;73.50;;;;;;5013086;28;20022;-74
2021/03/12 02:40:05;;;;;;;24.90;3.33;;;9.70;73.40;;;;;;5015867;28;20100;-74
2021/03/12 02:42:32;;;;;;;26.15;3.30;;;9.70;72.40;;;;;;5014700;28;20105;-75
2021/03/12 02:45:01;;;;;;;29.48;3.28;;;9.80;70.10;;;;;;5015538;28;20061;-75
2021/03/12 02:47:29;;;;;;;15.70;2.05;;;9.80;69.40;;;;;;5015489;28;20026;-74
2021/03/12 02:49:56;;;;;;;13.70;2.10;;;9.90;69.70;;;;;;5015479;28;20022;-75
2021/03/12 02:52:23;;;;;;;17.38;2.55;;;9.90;68.80;;;;;;5015630;28;20084;-74
2021/03/12 02:54:49;;;;;;;9.82;1.90;;;10.00;69.00;;;;;;5015763;28;20034;-72
2021/03/12 02:57:22;;;;;;;16.80;1.85;;;9.90;69.50;;;;;;5015081;28;20038;-73
2021/03/12 02:59:51;;;;;;;18.25;2.17;;;9.90;70.10;;;;;;5015562;28;20024;-72
2021/03/12 03:02:27;;;;;;;16.40;1.90;;;9.70;71.20;;;;;;5015662;28;20101;-73
2021/03/12 03:04:55;;;;;;;21.63;4.03;;;9.60;72.60;;;;;;5015059;28;20033;-72
2021/03/12 03:07:22;;;;;;;22.27;2.67;;;9.50;74.00;;;;;;5015188;28;20116;-72
2021/03/12 03:09:50;;;;;;;30.95;3.28;;;9.30;74.80;;;;;;5015146;28;20024;-72
2021/03/12 03:12:19;;;;;;;31.02;2.78;;;9.10;75.20;;;;;;5013801;28;20026;-73
2021/03/12 03:14:47;;;;;;;20.17;3.13;;;9.10;75.70;;;;;;5015215;28;20025;-73
2021/03/12 03:17:14;;;;;;;18.58;3.20;;;9.00;76.70;;;;;;5014804;28;20484;-73
2021/03/12 03:19:43;;;;;;;23.02;3.28;;;8.90;76.90;;;;;;5015149;28;20025;-73
2021/03/12 03:22:09;;;;;;;22.23;2.88;;;8.70;78.10;;;;;;5013484;28;20080;-73
2021/03/12 03:24:35;;;;;;;20.40;2.58;;;8.70;77.60;;;;;;5014414;28;20388;-73
2021/03/12 03:27:01;;;;;;;25.05;2.75;;;8.60;77.90;;;;;;5014650;28;20026;-73
2021/03/12 03:29:26;;;;;;;15.85;2.20;;;8.60;78.20;;;;;;5015153;28;20105;-73
2021/03/12 03:31:52;;;;;;;20.63;2.63;;;8.60;78.40;;;;;;5014908;28;20603;-73
2021/03/12 03:34:18;;;;;;;16.13;2.17;;;8.70;78.10;;;;;;5012484;28;20033;-73
2021/03/12 03:36:44;;;;;;;25.98;2.80;;;8.60;78.40;;;;;;5007801;28;20038;-73
2021/03/12 03:39:11;;;;;;;21.42;2.78;;;8.50;78.80;;;;;;5014789;28;20018;-73
2021/03/12 03:41:51;;;;;;;26.52;3.60;;;8.50;79.50;;;;;;5014615;28;20029;-73
2021/03/12 03:44:22;;;;;;;29.48;3.72;;;8.40;80.10;;;;;;5012838;28;20053;-73
2021/03/12 03:46:49;;;;;;;13.45;2.60;;;8.50;80.80;;;;;;5014583;28;20029;-72
2021/03/12 03:49:17;;;;;;;24.35;3.05;;;8.50;82.00;;;;;;5014579;28;20026;-73
2021/03/12 03:51:43;;;;;;;24.60;4.15;;;8.40;83.00;;;;;;5014112;28;20030;-73
2021/03/12 03:54:13;;;;;;;33.17;4.18;;;8.40;83.40;;;;;;5014417;28;20025;-72
2021/03/12 03:56:41;;;;;;;26.55;3.13;;;8.40;84.40;;;;;;5014182;28;20038;-74
2021/03/12 03:59:08;;;;;;;27.45;4.05;;;8.40;85.40;;;;;;5014129;28;20121;-73
2021/03/12 04:01:36;;;;;;;30.73;3.97;;;8.40;85.90;;;;;;5014369;28;20030;-73
2021/03/12 04:04:03;;;;;;;32.35;3.38;;;8.40;86.80;;;;;;5013884;28;20511;-73
2021/03/12 04:06:30;;;;;;;34.70;4.30;;;8.40;86.70;;;;;;5014318;28;20056;-72
2021/03/12 04:09:00;;;;;;;35.80;3.97;;;8.40;87.30;;;;;;5014072;28;20125;-73
2021/03/12 04:11:27;;;;;;;21.98;3.30;;;8.40;87.50;;;;;;5013974;28;20037;-73
2021/03/12 04:13:53;;;;;;;26.25;3.30;;;8.40;87.70;;;;;;5012856;28;20088;-72
2021/03/12 04:16:20;;;;;;;28.85;4.13;;;8.40;87.70;;;;;;5013796;28;20030;-73
2021/03/12 04:18:48;;;;;;;34.47;3.58;;;8.40;88.00;;;;;;5012699;28;20092;-73
2021/03/12 04:21:15;;;;;;;25.35;3.67;;;8.40;88.60;;;;;;5011527;28;20057;-72
2021/03/12 04:23:42;;;;;;;32.47;3.70;;;8.60;87.90;;;;;;5011093;28;20058;-72
2021/03/12 04:26:09;;;;;;;25.30;2.88;;;8.80;86.00;;;;;;5012901;28;20120;-72
2021/03/12 04:28:34;;;;;;;33.33;4.75;;;8.90;82.60;;;;;;5013653;28;20037;-73
2021/03/12 04:31:01;;;;;;;41.90;4.70;;;9.00;81.00;;;;;;5014005;28;20030;-73
2021/03/12 04:33:27;;;;;;;37.30;4.38;;;9.00;80.20;;;;;;5013861;28;20033;-72
2021/03/12 04:35:53;;;;;;;32.30;3.33;;;9.00;79.60;;;;;;5013493;28;20033;-72
2021/03/12 04:38:20;;;;;;;30.38;3.92;;;9.00;79.60;;;;;;5010628;28;20026;-73
2021/03/12 04:40:46;;;;;;;29.92;5.85;;;8.90;79.60;;;;;;5012220;28;20029;-72
2021/03/12 04:43:12;;;;;;;26.35;3.65;;;8.90;79.60;;;;;;5012193;28;20022;-73
2021/03/12 04:45:38;;;;;;;31.63;4.38;;;8.90;79.60;;;;;;5013144;28;20408;-73
2021/03/12 04:48:05;;;;;;;29.58;4.20;;;8.90;80.10;;;;;;5013249;28;20030;-73
2021/03/12 04:50:31;;;;;;;35.53;4.20;;;8.80;80.20;;;;;;5012133;28;20125;-73
2021/03/12 04:52:57;;;;;;;30.83;3.35;;;8.80;80.40;;;;;;5013383;28;20105;-73
2021/03/12 04:55:24;;;;;;;31.35;4.80;;;8.90;80.40;;;;;;5012884;28;20033;-73
2021/03/12 04:57:51;;;;;;;28.33;3.47;;;9.00;80.80;;;;;;5012056;28;20405;-73
2021/03/12 05:00:19;;;;;;;33.47;4.65;;;9.00;81.10;;;;;;5011794;28;20022;-72
2021/03/12 05:02:45;;;;;;;21.40;2.65;;;9.20;80.20;;;;;;5013095;28;20111;-70
2021/03/12 05:05:12;;;;;;;17.13;1.95;;;9.30;74.30;;;;;;5013251;28;20068;-71
2021/03/12 05:07:39;;;;;;;18.05;2.00;;;9.30;72.20;;;;;;5013043;28;20554;-73
2021/03/12 05:10:07;;;;;;;14.35;1.85;;;9.40;71.00;;;;;;5013043;28;20025;-73
2021/03/12 05:12:33;;;;;;;19.50;2.47;;;9.30;70.60;;;;;;5010073;28;20426;-73
2021/03/12 05:14:59;;;;;;;20.65;2.70;;;9.30;71.40;;;;;;5013322;28;20568;-73
2021/03/12 05:17:25;;;;;;;19.33;2.55;;;9.20;72.40;;;;;;5012436;28;20109;-73
2021/03/12 05:19:51;;;;;;;12.60;1.48;;;9.20;70.80;;;;;;5013256;28;20104;-72
2021/03/12 05:22:17;;;;;;;15.38;1.98;;;9.10;69.20;;;;;;5011280;28;20033;-73
2021/03/12 05:24:42;;;;;;;15.77;1.65;;;9.20;69.20;;;;;;5012368;28;20511;-73
2021/03/12 05:27:08;;;;;;;16.95;1.70;;;9.10;69.50;;;;;;5012178;28;20392;-72
2021/03/12 05:29:34;;;;;;;22.38;1.75;;;9.10;69.60;;;;;;5013040;28;20033;-72
2021/03/12 05:32:00;;;;;;;13.80;1.95;;;9.00;70.00;;;;;;5012928;28;20026;-72
2021/03/12 05:34:26;;;;;;;16.00;1.48;;;9.00;70.20;;;;;;5012888;28;20041;-73
2021/03/12 05:36:53;;;;;;;13.10;1.90;;;8.90;70.40;;;;;;5009526;28;20048;-73
2021/03/12 05:39:21;;;;;;;14.27;1.77;;;8.90;70.70;;;;;;5012848;28;20033;-72
2021/03/12 05:41:48;;;;;;;14.18;2.10;;;8.90;71.20;;;;;;5010875;28;20481;-72
2021/03/12 05:44:15;;;;;;;11.85;1.55;;;8.90;72.20;;;;;;5011483;28;20121;-72
2021/03/12 05:46:41;;;;;;;12.13;2.05;;;8.80;73.10;;;;;;5012638;28;20392;-73
2021/03/12 05:49:09;;;;;;;14.90;1.92;;;8.80;74.20;;;;;;5012498;28;20034;-73
2021/03/12 05:51:36;;;;;;;16.30;2.25;;;8.70;75.10;;;;;;5012860;28;20397;-72
2021/03/12 05:54:05;;;;;;;15.20;1.83;;;8.70;76.20;;;;;;5012682;28;20117;-73
2021/03/12 05:56:35;;;;;;;21.35;2.90;;;8.70;77.40;;;;;;5012264;28;20029;-72
2021/03/12 05:59:02;;;;;;;22.30;2.10;;;8.70;78.20;;;;;;5012153;28;20504;-72
2021/03/12 06:01:30;;;;;;;17.55;2.95;;;8.60;78.90;;;;;;5012461;28;20026;-72
2021/03/12 06:03:56;;;;;;;20.65;2.85;;;8.70;80.00;;;;;;5012376;28;20025;-72
2021/03/12 06:06:21;;;;;;;27.90;3.03;;;8.80;79.70;;;;;;5012407;28;20030;-72
2021/03/12 06:08:47;;;;;;;32.92;3.45;;;8.90;78.90;;;;;;5009350;28;20057;-73
2021/03/12 06:11:13;;;;;;;32.53;3.72;;;9.00;78.70;;;;;;5012052;28;20025;-73
2021/03/12 06:13:52;;;;;;;24.38;3.33;;;9.10;78.00;;;;;;5011269;28;20032;-73
2021/03/12 06:16:26;;;;;;;27.45;2.95;;;9.10;78.00;;;;;;5010979;28;20025;-73
2021/03/12 06:19:11;;;;;;;30.17;3.55;;;9.20;78.10;;;;;;5012145;28;20022;-72
2021/03/12 06:21:38;;;;;;;29.73;2.95;;;9.20;78.90;;;;;;5012114;28;20018;-72
2021/03/12 06:24:26;;;;;;;24.92;3.47;;;9.20;79.40;;;;;;5010185;28;20034;-72
2021/03/12 06:26:52;;;;;;;30.77;3.80;;;9.20;80.00;;;;;;5011877;28;20520;-73
2021/03/12 06:29:18;;;;;;;39.13;3.97;;;9.20;80.40;;;;;;5012258;28;20032;-72
2021/03/12 06:31:52;;;;;;;19.05;3.10;;;9.30;80.70;;;;;;5010868;28;20025;-72
2021/03/12 06:34:18;;;;;;;13.02;1.80;;;9.50;80.50;;;;;;5009029;28;20060;-72
2021/03/12 06:36:44;;;;;;;15.88;2.35;;;9.50;80.60;;;;;;5004159;28;20069;-72
2021/03/12 06:39:11;;;;;;;16.70;1.90;;;8.70;83.70;;;;;;5011612;28;20030;-73
2021/03/12 06:41:44;;;;;;;25.70;2.47;;;8.20;85.80;;;;;;5009657;28;20038;-76
2021/03/12 06:44:28;;;;;;;25.20;2.22;;;7.90;85.70;;;;;;5010685;28;20409;-74
2021/03/12 06:46:53;;;;;;;;;;;7.90;87.20;;;;;;5002695;28;20636;-76
2021/03/12 06:49:19;;;;;;;30.00;3.30;;;7.90;87.10;;;;;;5013969;28;19905;-75
2021/03/12 06:52:02;;;;;;;27.10;2.72;;;8.00;87.10;;;;;;5015569;28;20037;-76
2021/03/12 06:54:29;;;;;;;23.85;3.25;;;8.00;86.70;;;;;;5013804;28;20030;-76
2021/03/12 06:56:56;;;;;;;26.98;2.35;;;8.00;87.60;;;;;;5015213;28;20038;-74
2021/03/12 06:59:32;;;;;;;32.22;2.97;;;8.00;86.90;;;;;;5014643;28;20041;-75
2021/03/12 07:02:02;;;;;;;36.15;3.25;;;8.00;86.90;;;;;;5012047;28;20385;-75
2021/03/12 07:04:29;;;;;;;29.50;4.20;;;8.00;86.90;;;;;;5012354;28;20026;-76
2021/03/12 07:06:56;;;;;;;32.08;3.90;;;7.90;87.50;;;;;;5013067;28;20057;-76
2021/03/12 07:09:24;;;;;;;28.35;3.53;;;7.90;88.30;;;;;;5009132;28;20035;-76
2021/03/12 07:11:55;;;;;;;40.33;5.28;;;7.90;87.70;;;;;;5012648;28;20389;-76
2021/03/12 07:14:21;;;;;;;25.05;3.85;;;8.00;87.40;;;;;;5010979;28;20062;-75
2021/03/12 07:16:49;;;;;;;30.25;3.30;;;8.00;86.90;;;;;;5012298;28;20514;-76
2021/03/12 07:19:15;;;;;;;26.67;3.15;;;8.10;86.60;;;;;;5013992;28;20030;-76
2021/03/12 07:21:42;;;;;;;28.55;3.80;;;8.10;86.60;;;;;;5012101;28;20542;-75
2021/03/12 07:24:10;;;;;;;31.00;3.70;;;8.20;86.80;;;;;;5010342;28;20100;-76
2021/03/12 07:26:45;;;;;;;37.83;4.05;;;8.20;86.90;;;;;;5012507;28;20049;-74
2021/03/12 07:29:11;;;;;;;36.10;3.65;;;8.20;87.30;;;;;;5012541;28;20100;-75
2021/03/12 07:31:41;;;;;;;32.95;3.60;;;8.30;86.90;;;;;;5012366;28;20036;-75
2021/03/12 07:34:13;;;;;;;28.58;3.03;;;8.40;86.50;;;;;;5006076;28;20504;-76
2021/03/12 07:36:45;;;;;;;39.83;3.43;;;8.60;86.40;;;;;;5008850;28;20044;-75
2021/03/12 07:39:16;;;;;;;33.70;4.35;;;8.80;85.40;;;;;;5011895;28;20387;-74
2021/03/12 07:41:43;;;;;;;31.48;3.00;;;9.00;84.90;;;;;;5012343;28;20022;-74
2021/03/12 07:44:13;;;;;;;24.92;2.85;;;9.20;84.80;;;;;;5011373;28;20045;-76
2021/03/12 07:46:39;;;;;;;36.60;3.35;;;9.30;84.30;;;;;;5011110;28;20036;-75
2021/03/12 07:49:27;;;;;;;30.77;3.55;;;9.50;83.30;;;;;;5012932;28;20076;-76
2021/03/12 07:51:52;;;;;;;33.88;3.88;;;9.90;82.00;;;;;;5007869;28;20064;-75
2021/03/12 07:54:41;;;;;;;26.80;3.85;;;10.30;80.60;;;;;;5012224;28;20034;-74
2021/03/12 07:57:08;;;;;;;28.08;3.45;;;11.60;76.40;;;;;;5004192;28;20026;-75
2021/03/12 08:00:04;;;;;;;30.90;3.60;;;13.20;69.50;;;;;;5012572;28;20081;-73
2021/03/12 08:02:58;;;;;;;35.67;4.18;;;12.70;68.30;;;;;;5008005;28;20045;-72
2021/03/12 08:05:42;;;;;;;28.10;4.47;;;11.40;75.10;;;;;;5006089;28;20489;-73
2021/03/12 08:08:31;;;;;;;29.70;4.03;;;11.20;76.80;;;;;;5006848;28;20025;-73
2021/03/12 08:11:19;;;;;;;29.40;3.33;;;11.00;76.70;;;;;;5011305;28;20030;-74
2021/03/12 08:13:45;;;;;;;28.02;3.15;;;11.20;76.10;;;;;;5007327;28;20022;-72
2021/03/12 08:16:11;;;;;;;22.00;3.65;;;11.20;76.10;;;;;;5012728;28;20497;-73
2021/03/12 08:18:37;;;;;;;34.70;3.80;;;11.40;75.10;;;;;;5010556;28;20038;-73
2021/03/12 08:21:29;;;;;;;25.95;3.67;;;11.50;74.40;;;;;;5010669;28;20444;-73
2021/03/12 08:24:23;;;;;;;22.90;3.67;;;12.20;70.30;;;;;;5009008;28;20084;-73
2021/03/12 08:26:55;;;;;;;26.65;3.47;;;12.60;68.00;;;;;;5009950;28;20551;-73
2021/03/12 08:29:43;;;;;;;20.30;3.25;;;13.90;64.00;;;;;;5010430;28;20029;-73
2021/03/12 08:32:38;;;;;;;22.58;3.47;;;15.40;59.70;;;;;;5001959;28;20125;-74
2021/03/12 08:35:06;;;;;;;18.85;3.58;;;16.50;55.10;;;;;;5009551;28;20459;-73
2021/03/12 08:37:31;;;;;;;16.23;2.67;;;17.10;53.00;;;;;;5009066;28;20033;-73
2021/03/12 08:40:15;;;;;;;17.90;2.95;;;16.40;53.10;;;;;;5010296;28;20025;-73
2021/03/12 08:43:03;;;;;;;18.15;2.90;;;16.30;53.10;;;;;;5011069;28;20076;-73
2021/03/12 08:46:10;;;;;;;19.30;2.65;;;16.30;53.20;;;;;;5007330;28;20104;-74
2021/03/12 08:48:38;;;;;;;19.45;2.83;;;15.10;55.80;;;;;;5000547;28;20060;-73
2021/03/12 08:51:11;;;;;;;20.42;3.38;;;13.20;62.60;;;;;;5009734;28;20080;-73
2021/03/12 08:53:45;;;;;;;16.88;2.97;;;14.00;60.00;;;;;;5009609;28;20037;-73
2021/03/12 08:56:12;;;;;;;19.85;3.45;;;13.80;60.50;;;;;;5009534;28;20470;-74
2021/03/12 08:58:39;;;;;;;18.80;2.95;;;14.50;59.10;;;;;;5009934;28;20065;-74
2021/03/12 09:01:13;;;;;;;21.30;3.40;;;16.80;52.00;;;;;;5011261;28;20026;-74
2021/03/12 09:03:41;;;;;;;21.45;3.60;;;18.10;47.20;;;;;;5009888;28;20034;-75
2021/03/12 09:06:09;;;;;;;24.23;3.40;;;18.60;46.50;;;;;;5009846;28;20444;-73
2021/03/12 09:08:36;;;;;;;24.38;3.95;;;18.30;45.70;;;;;;5011056;28;20022;-74
2021/03/12 09:11:13;;;;;;;19.58;3.08;;;17.60;47.50;;;;;;5008680;28;20092;-74
2021/03/12 09:13:41;;;;;;;20.98;3.78;;;18.50;48.10;;;;;;5005694;28;20022;-75
2021/03/12 09:16:08;;;;;;;17.40;3.50;;;18.40;47.00;;;;;;5009834;28;20022;-76
2021/03/12 09:18:35;;;;;;;14.57;3.05;;;18.20;49.10;;;;;;5011265;28;20537;-75
2021/03/12 09:21:06;;;;;;;22.88;3.75;;;17.60;50.20;;;;;;5009577;28;20029;-73
2021/03/12 09:23:42;;;;;;;28.02;4.53;;;16.30;53.30;;;;;;5010555;28;20026;-72
2021/03/12 09:26:20;;;;;;;22.17;3.75;;;15.10;57.60;;;;;;5007228;28;20018;-72
2021/03/12 09:28:49;;;;;;;23.88;3.30;;;13.20;65.60;;;;;;5008379;28;20033;-73
2021/03/12 09:31:16;;;;;;;22.92;4.05;;;12.50;69.10;;;;;;5010958;28;20030;-72
2021/03/12 09:33:46;;;;;;;21.50;3.05;;;13.20;67.50;;;;;;5009457;28;20025;-72
2021/03/12 09:36:23;;;;;;;20.45;3.15;;;13.70;65.50;;;;;;5006310;28;20053;-72
2021/03/12 09:38:51;;;;;;;20.48;3.33;;;14.10;61.90;;;;;;5007301;28;20034;-74
2021/03/12 09:41:21;;;;;;;14.23;2.35;;;13.90;62.50;;;;;;5009034;28;20026;-74
2021/03/12 09:44:07;;;;;;;24.02;3.25;;;14.20;60.70;;;;;;5009939;28;20049;-73
2021/03/12 09:46:41;;;;;;;18.95;3.33;;;15.10;56.70;;;;;;5009388;28;20371;-74
2021/03/12 09:49:11;;;;;;;12.32;2.92;;;16.40;54.20;;;;;;5009405;28;20030;-74
2021/03/12 09:51:37;;;;;;;14.90;3.10;;;17.70;51.10;;;;;;5010065;28;20026;-74
2021/03/12 09:54:04;;;;;;;20.83;3.40;;;18.40;48.30;;;;;;5009250;28;20068;-75
2021/03/12 09:56:30;;;;;;;16.25;3.25;;;18.00;48.90;;;;;;5010922;28;20030;-75
2021/03/12 09:59:01;;;;;;;15.70;2.97;;;18.00;48.70;;;;;;5007818;28;20480;-74
2021/03/12 10:01:34;;;;;;;18.02;3.15;;;17.80;49.10;;;;;;5000388;28;20101;-74
2021/03/12 10:03:59;;;;;;;19.48;3.08;;;16.90;51.20;;;;;;5003343;28;20022;-74
2021/03/12 10:06:25;;;;;;;12.93;2.53;;;16.50;52.70;;;;;;5008958;28;20014;-74
2021/03/12 10:09:09;;;;;;;21.33;3.30;;;14.90;57.10;;;;;;5005385;28;20037;-74
2021/03/12 10:11:48;;;;;;;15.50;2.83;;;14.10;60.60;;;;;;5005094;28;20061;-72
2021/03/12 10:14:37;;;;;;;24.60;2.78;;;14.00;62.20;;;;;;5006680;28;20065;-73
2021/03/12 10:17:11;;;;;;;19.55;2.65;;;13.90;62.30;;;;;;5005334;28;20030;-72
2021/03/12 10:19:46;;;;;;;23.40;3.15;;;13.70;62.30;;;;;;5009955;28;20031;-73
2021/03/12 10:22:37;;;;;;;25.98;3.75;;;13.60;64.70;;;;;;5009783;28;20034;-73
2021/03/12 10:25:13;;;;;;;18.63;2.60;;;13.50;65.20;;;;;;5009523;28;20405;-72
2021/03/12 10:27:44;;;;;;;24.58;2.35;;;13.50;64.50;;;;;;5003366;28;20550;-73
2021/03/12 10:30:17;;;;;;;21.88;3.75;;;13.30;65.20;;;;;;5013110;28;20124;-72
2021/03/12 10:32:47;;;;;;;;;;;13.50;64.30;;;;;;5014383;28;20018;-74
2021/03/12 10:35:27;;;;;;;29.15;3.13;;;13.30;65.00;;;;;;5012444;28;20027;-73
2021/03/12 10:37:55;;;;;;;22.55;3.63;;;13.40;64.50;;;;;;5010884;28;20030;-73
2021/03/12 10:40:24;;;;;;;27.30;3.65;;;13.30;65.40;;;;;;5011127;28;20060;-71
2021/03/12 10:42:50;;;;;;;19.92;2.75;;;13.50;64.30;;;;;;5012623;28;20030;-72
2021/03/12 10:45:49;;;;;;;15.65;2.80;;;13.40;64.70;;;;;;5010334;28;20058;-75
2021/03/12 10:48:15;;;;;;;27.63;2.92;;;13.30;65.50;;;;;;5012795;28;20520;-75
2021/03/12 10:50:48;;;;;;;27.17;2.95;;;13.50;64.40;;;;;;5012349;28;20041;-75
2021/03/12 10:53:15;;;;;;;21.05;3.75;;;13.40;64.70;;;;;;5012555;28;20561;-74
2021/03/12 10:55:45;;;;;;;19.95;3.35;;;13.40;65.00;;;;;;5012512;28;20037;-75
2021/03/12 10:58:25;;;;;;;17.95;2.78;;;13.40;65.90;;;;;;5013846;28;20036;-76
2021/03/12 11:01:05;;;;;;;21.83;2.88;;;13.30;65.10;;;;;;5010774;28;20022;-75
2021/03/12 11:03:31;;;;;;;17.40;2.67;;;13.70;65.40;;;;;;5003826;28;20456;-74
2021/03/12 11:05:56;;;;;;;27.45;3.42;;;14.10;62.40;;;;;;5012125;28;20022;-74
2021/03/12 11:08:22;;;;;;;23.48;3.50;;;14.10;62.80;;;;;;5013748;28;20034;-75
2021/03/12 11:10:48;;;;;;;30.30;3.47;;;14.10;63.80;;;;;;5010101;28;20216;-75
2021/03/12 11:13:14;;;;;;;19.30;2.97;;;13.60;62.20;;;;;;5010112;28;20064;-76
2021/03/12 11:15:40;;;;;;;28.73;3.45;;;13.50;65.50;;;;;;5011915;28;20481;-75
2021/03/12 11:18:05;;;;;;;20.88;3.97;;;13.30;65.80;;;;;;5013516;28;20064;-75
2021/03/12 11:20:31;;;;;;;20.92;3.33;;;13.30;63.70;;;;;;5012248;28;20065;-75
2021/03/12 11:22:57;;;;;;;21.45;3.30;;;13.40;65.20;;;;;;5010663;28;20048;-73
2021/03/12 11:25:23;;;;;;;20.30;3.47;;;13.20;64.10;;;;;;5013171;28;20045;-76
2021/03/12 11:27:48;;;;;;;26.63;2.90;;;13.30;64.20;;;;;;5010051;28;20030;-75
2021/03/12 11:30:17;;;;;;;13.63;2.42;;;13.10;64.30;;;;;;5010264;28;20030;-75
2021/03/12 11:32:44;;;;;;;20.05;2.72;;;13.10;64.90;;;;;;5011340;28;20036;-76
2021/03/12 11:35:11;;;;;;;20.75;3.22;;;13.20;65.60;;;;;;5013205;28;20492;-76
2021/03/12 11:37:37;;;;;;;16.60;2.58;;;13.10;65.20;;;;;;5008659;28;20088;-76
2021/03/12 11:40:05;;;;;;;16.77;2.75;;;13.30;65.10;;;;;;5013544;28;20022;-75
2021/03/12 11:42:31;;;;;;;18.38;2.53;;;13.10;64.80;;;;;;5010472;28;20108;-75
2021/03/12 11:44:58;;;;;;;21.48;3.20;;;13.30;65.40;;;;;;5010961;28;20100;-73
2021/03/12 11:47:24;;;;;;;22.52;3.00;;;13.30;65.40;;;;;;5010311;28;21507;-73
2021/03/12 11:49:50;;;;;;;18.85;3.17;;;13.20;65.40;;;;;;5011482;28;20388;-75
2021/03/12 11:52:16;;;;;;;23.40;3.47;;;13.10;66.80;;;;;;5013327;28;20034;-73
2021/03/12 11:54:42;;;;;;;25.00;4.20;;;13.30;65.60;;;;;;5011235;28;20029;-74
2021/03/12 11:57:08;;;;;;;27.20;3.35;;;13.20;67.00;;;;;;5012945;28;20034;-75
2021/03/12 11:59:34;;;;;;;32.55;3.95;;;13.40;66.50;;;;;;5010882;28;20105;-74
2021/03/12 12:02:02;;;;;;;24.38;3.60;;;13.60;66.50;;;;;;5011615;28;20487;-74
2021/03/12 12:04:27;;;;;;;22.70;3.33;;;13.50;65.10;;;;;;5012522;28;20040;-75
2021/03/12 12:06:55;;;;;;;15.52;2.30;;;13.60;65.50;;;;;;5011079;28;20417;-74
2021/03/12 12:09:21;;;;;;;19.02;3.47;;;13.70;64.80;;;;;;5010143;28;20026;-75
2021/03/12 12:11:47;;;;;;;18.15;3.42;;;13.60;63.90;;;;;;5012489;28;20362;-72
2021/03/12 12:14:13;;;;;;;20.27;3.25;;;13.40;61.60;;;;;;5008640;28;20060;-75
2021/03/12 12:16:38;;;;;;;17.90;2.70;;;13.50;63.20;;;;;;5012308;28;20022;-76
2021/03/12 12:19:11;;;;;;;17.88;2.83;;;13.60;62.20;;;;;;5010570;28;20034;-76
2021/03/12 12:21:37;;;;;;;20.75;2.88;;;13.40;61.30;;;;;;5012325;28;20046;-74
2021/03/12 12:24:04;;;;;;;17.13;2.38;;;13.40;63.20;;;;;;5009509;28;20117;-77
2021/03/12 12:26:31;;;;;;;25.25;2.40;;;13.50;62.70;;;;;;5007520;28;20501;-77
2021/03/12 12:28:57;;;;;;;21.27;2.33;;;13.20;65.70;;;;;;5010926;28;20104;-76
2021/03/12 12:31:23;;;;;;;12.13;1.38;;;12.90;64.90;;;;;;5011800;28;20109;-76
2021/03/12 12:33:48;;;;;;;12.32;1.90;;;13.00;65.10;;;;;;5011011;28;20497;-74
2021/03/12 12:36:14;;;;;;;18.33;2.40;;;12.90;65.40;;;;;;5009724;28;20094;-74
2021/03/12 12:38:40;;;;;;;12.60;1.83;;;12.90;66.00;;;;;;5010918;28;20117;-74
2021/03/12 12:41:05;;;;;;;10.25;1.30;;;12.80;63.40;;;;;;5008704;28;20480;-76
2021/03/12 12:43:32;;;;;;;7.68;1.15;;;12.90;62.90;;;;;;5007540;28;21095;-75
2021/03/12 12:45:57;;;;;;;8.73;1.20;;;13.10;61.10;;;;;;5009953;28;20026;-76
2021/03/12 12:48:23;;;;;;;7.95;1.10;;;13.30;60.10;;;;;;5009930;28;20029;-74
2021/03/12 12:50:48;;;;;;;7.38;1.15;;;13.30;58.90;;;;;;5010296;28;20074;-75
2021/03/12 12:53:14;;;;;;;11.85;1.67;;;13.30;60.10;;;;;;5011659;28;20038;-77
2021/03/12 12:55:41;;;;;;;15.35;1.70;;;13.40;60.70;;;;;;5009312;28;20018;-75